Time;durP1;ratioP1;P1;durP2;ratioP2;P2;SDS_P1;SDS_P2;PMS_P1;PMS_P2;Temp;Humidity;BMP_temperature;BMP_pressure;BME280_temperature;BME280_humidity;BME280_pressure;Samples;Min_cycle;Max_cycle;Signal;HPM_P1;HPM_P2
2023/08/25 00:00:09;;;;;;;8.60;7.70;;;;;;;18.63;100.00;100750.41;5262303;28;20029;-76
2023/08/25 00:02:40;;;;;;;10.52;9.38;;;;;;;18.62;100.00;100747.84;5262076;28;20036;-76
2023/08/25 00:05:12;;;;;;;10.23;8.57;;;;;;;18.61;100.00;100754.03;5261636;28;20488;-76
2023/08/25 00:07:43;;;;;;;10.65;8.68;;;;;;;18.52;100.00;100757.97;5261725;28;20528;-76
2023/08/25 00:10:15;;;;;;;11.97;8.27;;;;;;;18.50;100.00;100768.59;5262090;28;20108;-76
2023/08/25 00:12:46;;;;;;;11.70;9.37;;;;;;;18.50;100.00;100758.03;5262062;28;20032;-76
2023/08/25 00:15:18;;;;;;;11.60;8.87;;;;;;;18.47;100.00;100765.25;5262013;28;20060;-76
2023/08/25 00:17:50;;;;;;;10.37;9.07;;;;;;;18.46;100.00;100767.00;5261997;28;20028;-76
2023/08/25 00:20:21;;;;;;;10.52;9.30;;;;;;;18.43;100.00;100764.50;5261989;28;20052;-77
2023/08/25 00:22:53;;;;;;;12.77;9.23;;;;;;;18.51;100.00;100766.81;5264434;28;20472;-77
2023/08/25 00:25:24;;;;;;;12.53;9.67;;;;;;;18.39;100.00;100758.53;5266041;28;20032;-76
2023/08/25 00:27:55;;;;;;;12.47;9.73;;;;;;;18.36;100.00;100769.22;5265612;28;20515;-77
2023/08/25 00:30:27;;;;;;;10.83;9.10;;;;;;;18.43;100.00;100766.31;5265816;28;20368;-76
2023/08/25 00:33:00;;;;;;;10.87;9.77;;;;;;;18.35;100.00;100762.25;5265564;28;20036;-78
2023/08/25 00:35:32;;;;;;;15.75;9.65;;;;;;;18.35;100.00;100774.56;5264912;28;20025;-76
2023/08/25 00:38:03;;;;;;;9.87;8.83;;;;;;;18.28;100.00;100773.16;5265371;28;20041;-77
2023/08/25 00:40:35;;;;;;;12.47;11.27;;;;;;;18.17;100.00;100774.47;5247694;28;20024;-77
2023/08/25 00:43:07;;;;;;;12.40;10.02;;;;;;;18.23;100.00;100774.19;5265550;28;20457;-76
2023/08/25 00:45:39;;;;;;;11.00;10.00;;;;;;;18.20;100.00;100769.06;5265450;28;20040;-76
2023/08/25 00:48:11;;;;;;;13.02;10.43;;;;;;;18.18;100.00;100764.78;5265363;28;20053;-76
2023/08/25 00:50:42;;;;;;;12.47;10.27;;;;;;;18.18;100.00;100772.69;5265410;28;20031;-77
2023/08/25 00:53:14;;;;;;;14.20;10.27;;;;;;;18.13;100.00;100770.28;5247615;28;20056;-76
2023/08/25 00:55:46;;;;;;;12.13;10.50;;;;;;;18.14;100.00;100761.41;5265262;28;20510;-75
2023/08/25 00:58:18;;;;;;;10.70;9.60;;;;;;;18.13;100.00;100767.63;5247699;28;20036;-77
2023/08/25 01:00:50;;;;;;;11.90;10.52;;;;;;;18.14;100.00;100764.03;5265938;28;20127;-76
2023/08/25 01:03:24;;;;;;;13.63;11.27;;;;;;;18.11;100.00;100758.94;5265755;28;20040;-76
2023/08/25 01:05:57;;;;;;;12.10;10.82;;;;;;;18.10;100.00;100762.50;5264770;28;20025;-77
2023/08/25 01:08:29;;;;;;;13.45;10.55;;;;;;;18.12;100.00;100765.91;5265346;28;20079;-76
2023/08/25 01:11:07;;;;;;;14.07;10.82;;;;;;;18.13;100.00;100767.63;5247561;28;20211;-76
2023/08/25 01:14:16;;;;;;;13.75;11.40;;;;;;;18.15;100.00;100760.50;5265077;28;20029;-76
2023/08/25 01:17:07;;;;;;;12.52;10.57;;;;;;;18.18;100.00;100767.44;5180285;28;20340;-76
2023/08/25 01:19:53;;;;;;;11.82;10.63;;;;;;;18.13;100.00;100759.72;5263465;28;20036;-77
2023/08/25 01:22:30;;;;;;;12.60;11.35;;;;;;;18.07;100.00;100754.72;5264606;28;20139;-76
2023/08/25 01:25:26;;;;;;;11.45;10.15;;;;;;;18.07;100.00;100749.44;5265200;28;20049;-76
2023/08/25 01:28:00;;;;;;;13.15;11.20;;;;;;;18.02;100.00;100754.91;5264830;28;20023;-77
2023/08/25 01:30:34;;;;;;;12.93;10.75;;;;;;;18.00;100.00;100755.88;5264676;28;20032;-77
2023/08/25 01:33:06;;;;;;;13.88;11.27;;;;;;;17.95;100.00;100747.34;5246553;28;20029;-76
2023/08/25 01:36:08;;;;;;;12.40;10.27;;;;;;;18.00;100.00;100746.22;5264003;28;20116;-77
2023/08/25 01:38:46;;;;;;;11.30;10.27;;;;;;;17.99;100.00;100744.50;5264717;28;20040;-77
2023/08/25 01:41:46;;;;;;;12.38;10.25;;;;;;;17.96;100.00;100747.25;5264264;28;20083;-77
2023/08/25 01:44:21;;;;;;;12.70;11.43;;;;;;;17.99;100.00;100751.56;5264020;28;20033;-77
2023/08/25 01:46:58;;;;;;;12.75;11.55;;;;;;;18.07;100.00;100744.16;5264386;28;20029;-77
2023/08/25 01:49:30;;;;;;;12.93;11.35;;;;;;;18.12;100.00;100744.81;5264327;28;20146;-77
2023/08/25 01:52:02;;;;;;;12.45;11.25;;;;;;;18.15;100.00;100749.94;5264323;28;20033;-77
2023/08/25 01:54:33;;;;;;;11.83;10.73;;;;;;;18.16;100.00;100738.47;5265143;28;20025;-77
2023/08/25 01:57:04;;;;;;;12.57;10.83;;;;;;;18.17;100.00;100740.16;5265436;28;20028;-75
2023/08/25 01:59:36;;;;;;;12.07;10.80;;;;;;;18.27;100.00;100737.97;5264934;28;20045;-77
2023/08/25 02:02:07;;;;;;;13.70;10.37;;;;;;;18.31;100.00;100728.16;5265896;28;20029;-77
2023/08/25 02:04:39;;;;;;;13.27;11.90;;;;;;;18.27;100.00;100727.41;5265723;28;20080;-76
2023/08/25 02:07:10;;;;;;;12.23;11.00;;;;;;;18.27;100.00;100730.06;5264860;28;20057;-77
2023/08/25 02:09:41;;;;;;;12.80;11.70;;;;;;;18.29;100.00;100729.97;5265150;28;20033;-76
2023/08/25 02:12:13;;;;;;;13.73;12.00;;;;;;;18.33;100.00;100734.22;5264911;28;20364;-77
2023/08/25 02:14:44;;;;;;;14.33;12.00;;;;;;;18.31;100.00;100734.28;5264820;28;20108;-77
2023/08/25 02:17:15;;;;;;;13.70;12.33;;;;;;;18.32;100.00;100732.47;5265534;28;20021;-78
2023/08/25 02:19:47;;;;;;;14.57;13.17;;;;;;;18.35;100.00;100727.06;5265737;28;20033;-78
2023/08/25 02:22:18;;;;;;;15.17;13.57;;;;;;;18.36;100.00;100724.34;5265247;28;20025;-77
2023/08/25 02:24:50;;;;;;;14.80;13.40;;;;;;;18.42;100.00;100720.59;5263856;28;20025;-77
2023/08/25 02:27:22;;;;;;;14.63;13.23;;;;;;;18.41;100.00;100726.78;5264340;28;20033;-77
2023/08/25 02:29:53;;;;;;;15.68;14.18;;;;;;;18.43;100.00;100721.44;5265055;28;20516;-77
2023/08/25 02:32:24;;;;;;;15.37;13.97;;;;;;;18.37;100.00;100722.56;5264757;28;20104;-76
2023/08/25 02:34:56;;;;;;;16.73;15.17;;;;;;;18.43;100.00;100724.91;5267364;28;20031;-77
2023/08/25 02:37:27;;;;;;;17.07;15.30;;;;;;;18.35;100.00;100708.59;5263235;28;20108;-76
2023/08/25 02:39:58;;;;;;;15.53;14.23;;;;;;;18.45;100.00;100698.47;5263843;28;20465;-76
2023/08/25 02:42:30;;;;;;;15.37;13.77;;;;;;;18.47;100.00;100699.25;5263369;28;20360;-78
2023/08/25 02:45:01;;;;;;;16.43;14.83;;;;;;;18.47;100.00;100694.00;5263142;28;20064;-78
2023/08/25 02:47:32;;;;;;;17.30;15.50;;;;;;;18.44;100.00;100694.97;5263525;28;20025;-77
2023/08/25 02:50:04;;;;;;;16.40;14.90;;;;;;;18.46;100.00;100693.09;5263684;28;20037;-76
2023/08/25 02:52:36;;;;;;;18.45;16.80;;;;;;;18.44;100.00;100689.69;5263570;28;20116;-76
2023/08/25 02:55:07;;;;;;;18.53;17.07;;;;;;;18.50;100.00;100691.19;5263610;28;20033;-76
2023/08/25 02:57:39;;;;;;;18.98;17.23;;;;;;;18.51;100.00;100688.47;5263372;28;20033;-76
2023/08/25 03:00:14;;;;;;;18.03;16.40;;;;;;;18.55;100.00;100679.47;5263328;28;20025;-76
2023/08/25 03:02:46;;;;;;;19.60;17.58;;;;;;;18.52;100.00;100676.13;5262996;28;20025;-75
2023/08/25 03:05:19;;;;;;;18.75;17.08;;;;;;;18.48;100.00;100674.56;5264722;28;20037;-76
2023/08/25 03:07:52;;;;;;;19.38;17.48;;;;;;;18.50;100.00;100670.06;5262588;28;20447;-76
2023/08/25 03:10:23;;;;;;;;;;;;;;;18.56;100.00;100670.66;5263376;28;20063;-76
2023/08/25 03:12:54;;;;;;;20.95;18.80;;;;;;;18.50;100.00;100668.28;5262886;28;19963;-77
2023/08/25 03:15:26;;;;;;;20.33;18.33;;;;;;;18.53;100.00;100662.00;5262747;28;20029;-77
2023/08/25 03:17:57;;;;;;;19.93;18.17;;;;;;;18.55;100.00;100655.72;5245055;28;20025;-75
2023/08/25 03:20:28;;;;;;;21.70;19.70;;;;;;;18.56;100.00;100653.94;5245067;28;20033;-75
2023/08/25 03:23:00;;;;;;;20.73;18.93;;;;;;;18.56;100.00;100652.16;5245005;28;20418;-76
2023/08/25 03:25:31;;;;;;;22.15;20.00;;;;;;;18.55;100.00;100647.81;5262761;28;20353;-76
2023/08/25 03:28:03;;;;;;;20.83;19.13;;;;;;;18.55;100.00;100645.16;5262896;28;20041;-75
2023/08/25 03:30:35;;;;;;;23.27;21.15;;;;;;;18.54;100.00;100642.59;5262613;28;20448;-75
2023/08/25 03:33:06;;;;;;;23.40;21.23;;;;;;;18.55;100.00;100639.88;5262643;28;20029;-76
2023/08/25 03:35:38;;;;;;;23.53;21.33;;;;;;;18.52;100.00;100641.81;5262144;28;20098;-76
2023/08/25 03:38:09;;;;;;;23.30;21.03;;;;;;;18.52;100.00;100640.03;5262850;28;20035;-77
2023/08/25 03:40:40;;;;;;;21.33;19.30;;;;;;;18.49;100.00;100631.41;5262528;28;20110;-76
2023/08/25 03:43:12;;;;;;;23.97;21.67;;;;;;;18.48;100.00;100633.22;5262411;28;20025;-75
2023/08/25 03:45:43;;;;;;;22.37;20.43;;;;;;;18.49;100.00;100619.06;5262235;28;20070;-76
2023/08/25 03:48:14;;;;;;;22.80;20.80;;;;;;;18.46;100.00;100623.66;5262295;28;20021;-76
2023/08/25 03:50:47;;;;;;;26.77;21.40;;;;;;;18.52;100.00;100631.28;5262589;28;20353;-76
2023/08/25 03:53:18;;;;;;;;;;;;;;;18.58;100.00;100628.34;5262775;28;20025;-76
2023/08/25 03:55:49;;;;;;;22.75;20.80;;;;;;;18.55;100.00;100631.13;5262143;28;19999;-76
2023/08/25 03:58:22;;;;;;;22.87;20.83;;;;;;;18.52;100.00;100628.63;5265913;28;20475;-77
2023/08/25 04:00:54;;;;;;;;;;;;;;;18.60;100.00;100631.75;5266883;28;20053;-76
2023/08/25 04:03:26;;;;;;;22.25;20.35;;;;;;;18.54;100.00;100619.69;5248398;28;20050;-77
2023/08/25 04:05:57;;;;;;;23.73;21.63;;;;;;;18.49;100.00;100626.13;5268320;28;20367;-76
2023/08/25 04:08:29;;;;;;;23.83;21.83;;;;;;;18.48;100.00;100625.28;5266419;28;20064;-76
2023/08/25 04:11:00;;;;;;;24.23;21.93;;;;;;;18.47;100.00;100623.56;5266433;28;20040;-76
2023/08/25 04:13:31;;;;;;;25.30;22.27;;;;;;;18.46;100.00;100627.13;5266286;28;20085;-76
2023/08/25 04:16:04;;;;;;;26.27;23.43;;;;;;;18.46;100.00;100621.00;5266245;28;20037;-77
2023/08/25 04:18:35;;;;;;;22.63;20.50;;;;;;;18.46;100.00;100616.56;5266159;28;20110;-76
2023/08/25 04:21:06;;;;;;;24.20;21.97;;;;;;;18.46;100.00;100621.00;5265910;28;20067;-77
2023/08/25 04:23:38;;;;;;;27.20;24.27;;;;;;;18.40;100.00;100612.47;5266012;28;20025;-77
2023/08/25 04:26:09;;;;;;;24.53;22.17;;;;;;;18.39;100.00;100612.53;5266010;28;20421;-77
2023/08/25 04:28:40;;;;;;;24.67;22.20;;;;;;;18.38;100.00;100608.16;5265639;28;20029;-77
2023/08/25 04:31:12;;;;;;;22.67;20.53;;;;;;;18.35;100.00;100609.19;5247948;28;20025;-77
2023/08/25 04:33:43;;;;;;;25.03;22.70;;;;;;;18.32;100.00;100614.63;5266041;28;20584;-77
2023/08/25 04:36:15;;;;;;;23.67;21.43;;;;;;;18.33;100.00;100618.09;5265530;28;20059;-77
2023/08/25 04:38:47;;;;;;;24.27;21.88;;;;;;;18.29;100.00;100608.59;5247892;28;20369;-77
2023/08/25 04:41:19;;;;;;;24.37;21.93;;;;;;;18.28;100.00;100620.09;5265509;28;20115;-77
2023/08/25 04:43:50;;;;;;;22.75;20.77;;;;;;;18.29;100.00;100617.41;5265766;28;20025;-76
2023/08/25 04:46:21;;;;;;;23.90;21.53;;;;;;;18.31;100.00;100633.16;5265670;28;20025;-75
2023/08/25 04:48:53;;;;;;;23.80;21.57;;;;;;;18.35;100.00;100632.94;5265276;28;20107;-76
2023/08/25 04:51:24;;;;;;;25.00;22.70;;;;;;;18.34;100.00;100611.91;5247782;28;20082;-76
2023/08/25 04:53:55;;;;;;;24.20;21.80;;;;;;;18.37;100.00;100609.97;5265212;28;20115;-76
2023/08/25 04:56:27;;;;;;;25.20;22.63;;;;;;;18.37;100.00;100612.59;5265861;28;20037;-77
2023/08/25 04:58:58;;;;;;;22.67;20.57;;;;;;;18.39;100.00;100610.75;5265331;28;20033;-77
2023/08/25 05:01:30;;;;;;;23.50;21.40;;;;;;;18.40;100.00;100603.66;5264998;28;20460;-77
2023/08/25 05:04:02;;;;;;;23.87;21.67;;;;;;;18.42;100.00;100607.09;5264905;28;20067;-77
2023/08/25 05:06:33;;;;;;;23.67;21.38;;;;;;;18.41;100.00;100602.75;5246834;28;20017;-77
2023/08/25 05:09:04;;;;;;;24.70;22.50;;;;;;;18.36;100.00;100588.94;5264742;28;20035;-77
2023/08/25 05:11:36;;;;;;;24.70;21.30;;;;;;;18.37;100.00;100593.25;5265117;28;20061;-76
2023/08/25 05:14:07;;;;;;;24.10;21.33;;;;;;;18.31;100.00;100593.56;5265059;28;20037;-77
2023/08/25 05:16:39;;;;;;;23.47;21.13;;;;;;;18.33;100.00;100603.09;5247004;28;20037;-77
2023/08/25 05:19:13;;;;;;;22.48;20.67;;;;;;;18.35;100.00;100597.75;5265052;28;20033;-77
2023/08/25 05:21:45;;;;;;;23.42;21.00;;;;;;;18.37;100.00;100595.91;5264884;28;20029;-76
2023/08/25 05:24:18;;;;;;;19.97;18.03;;;;;;;18.37;100.00;100594.13;5264844;28;20082;-76
2023/08/25 05:26:53;;;;;;;19.92;18.02;;;;;;;18.44;100.00;100607.88;5264584;28;20021;-77
2023/08/25 05:29:26;;;;;;;19.95;17.92;;;;;;;18.52;100.00;100600.44;5246866;28;20375;-77
2023/08/25 05:31:58;;;;;;;18.70;16.95;;;;;;;18.65;100.00;100615.69;5264408;28;20032;-76
2023/08/25 05:34:31;;;;;;;16.83;15.18;;;;;;;18.75;100.00;100615.13;5264555;28;20043;-77
2023/08/25 05:37:02;;;;;;;16.63;14.95;;;;;;;18.87;100.00;100597.88;5264263;28;20123;-77
2023/08/25 05:39:34;;;;;;;15.40;13.90;;;;;;;19.04;100.00;100588.22;5264651;28;20124;-76
2023/08/25 05:42:07;;;;;;;14.00;12.60;;;;;;;19.12;100.00;100592.16;5246437;28;20075;-77
2023/08/25 05:44:39;;;;;;;16.25;14.38;;;;;;;19.15;100.00;100596.47;5264159;28;20033;-76
2023/08/25 05:47:10;;;;;;;16.03;13.27;;;;;;;19.25;100.00;100586.25;5264151;28;20025;-76
2023/08/25 05:49:42;;;;;;;13.73;12.43;;;;;;;19.19;100.00;100583.94;5264356;28;20464;-76
2023/08/25 05:52:13;;;;;;;13.90;12.60;;;;;;;19.16;100.00;100582.31;5246051;28;20032;-76
2023/08/25 05:54:44;;;;;;;16.03;11.47;;;;;;;19.22;100.00;100573.22;5264545;28;20021;-76
2023/08/25 05:57:16;;;;;;;13.67;10.27;;;;;;;19.20;100.00;100575.94;5264274;28;20107;-77
2023/08/25 05:59:47;;;;;;;12.00;10.80;;;;;;;19.20;100.00;100583.00;5264169;28;20025;-76
2023/08/25 06:02:19;;;;;;;10.40;9.30;;;;;;;19.19;100.00;100581.28;5264044;28;20139;-78
2023/08/25 06:04:50;;;;;;;14.13;10.23;;;;;;;19.20;100.00;100575.09;5263927;28;20049;-76
2023/08/25 06:07:21;;;;;;;11.73;10.37;;;;;;;19.16;100.00;100558.53;5263643;28;20082;-77
2023/08/25 06:09:53;;;;;;;11.43;9.17;;;;;;;19.04;100.00;100559.16;5264087;28;20028;-75
2023/08/25 06:12:24;;;;;;;12.97;9.40;;;;;;;19.01;100.00;100573.38;5263852;28;20029;-76
2023/08/25 06:14:55;;;;;;;11.43;9.13;;;;;;;18.92;100.00;100564.16;5263864;28;20456;-77
2023/08/25 06:17:27;;;;;;;10.33;8.80;;;;;;;18.90;100.00;100573.94;5263799;28;20028;-76
2023/08/25 06:19:58;;;;;;;12.57;9.83;;;;;;;18.83;100.00;100576.94;5262846;28;20029;-76
2023/08/25 06:22:29;;;;;;;13.43;9.63;;;;;;;18.82;100.00;100591.06;5263650;28;20035;-76
2023/08/25 06:25:01;;;;;;;10.80;8.97;;;;;;;18.78;100.00;100585.09;5263985;28;20025;-76
2023/08/25 06:27:32;;;;;;;9.77;7.83;;;;;;;18.75;100.00;100577.31;5263878;28;20025;-76
2023/08/25 06:30:04;;;;;;;18.83;9.50;;;;;;;18.67;100.00;100613.81;5263645;28;20072;-76
2023/08/25 06:32:35;;;;;;;17.85;8.80;;;;;;;18.68;100.00;100604.97;5263688;28;20032;-76
2023/08/25 06:35:07;;;;;;;9.30;8.47;;;;;;;18.62;100.00;100602.63;5263608;28;20468;-77
2023/08/25 06:37:39;;;;;;;14.57;8.40;;;;;;;18.59;100.00;100590.44;5263371;28;20017;-76
2023/08/25 06:40:11;;;;;;;16.35;8.27;;;;;;;18.53;100.00;100590.72;5263696;28;20052;-76
2023/08/25 06:42:42;;;;;;;10.93;8.23;;;;;;;18.60;100.00;100573.66;5263235;28;20025;-76
2023/08/25 06:45:14;;;;;;;17.27;8.17;;;;;;;18.58;100.00;100563.19;5263408;28;20066;-76
2023/08/25 06:47:49;;;;;;;10.95;8.45;;;;;;;18.56;100.00;100572.97;5263323;28;20029;-76
2023/08/25 06:50:24;;;;;;;14.10;9.07;;;;;;;18.53;100.00;100583.69;5262937;28;20029;-75
2023/08/25 06:52:55;;;;;;;13.50;9.23;;;;;;;18.54;100.00;100581.88;5263348;28;20029;-77
2023/08/25 06:55:27;;;;;;;15.53;8.93;;;;;;;18.57;100.00;100560.63;5262990;28;20548;-77
2023/08/25 06:57:59;;;;;;;19.15;9.77;;;;;;;18.51;100.00;100555.66;5245333;28;20407;-78
2023/08/25 07:00:30;;;;;;;13.60;9.43;;;;;;;18.49;100.00;100528.47;5263072;28;20425;-77
2023/08/25 07:03:03;;;;;;;21.27;10.47;;;;;;;18.49;100.00;100502.94;5262669;28;20096;-77
2023/08/25 07:05:38;;;;;;;16.70;11.70;;;;;;;18.47;100.00;100514.50;5272929;28;20044;-77
2023/08/25 07:08:12;;;;;;;13.52;11.88;;;;;;;18.37;100.00;100522.00;5262483;28;20526;-79
2023/08/25 07:10:45;;;;;;;18.08;12.43;;;;;;;18.43;100.00;100552.53;5262919;28;20104;-76
2023/08/25 07:13:17;;;;;;;16.60;13.15;;;;;;;18.37;100.00;100545.75;5263010;28;20529;-76
2023/08/25 07:15:49;;;;;;;15.20;12.40;;;;;;;18.39;100.00;100518.38;5271906;28;20040;-78
2023/08/25 07:18:20;;;;;;;14.07;12.63;;;;;;;18.39;100.00;100510.47;5283761;28;20035;-77
2023/08/25 07:20:52;;;;;;;15.03;13.63;;;;;;;18.35;100.00;100521.22;5282597;28;20021;-78
2023/08/25 07:23:23;;;;;;;15.67;14.07;;;;;;;18.34;100.00;100578.44;5283369;28;20028;-78
2023/08/25 07:25:55;;;;;;;15.97;14.13;;;;;;;18.27;100.00;100656.16;5279386;28;20095;-78
2023/08/25 07:28:26;;;;;;;18.00;15.40;;;;;;;18.10;100.00;100667.53;5273513;28;20024;-82
2023/08/25 07:30:59;;;;;;;16.40;14.60;;;;;;;18.07;100.00;100622.81;5230979;28;20420;-81
2023/08/25 07:33:30;;;;;;;23.35;15.57;;;;;;;18.12;100.00;100598.88;5262254;28;20041;-79
2023/08/25 07:36:04;;;;;;;22.83;15.57;;;;;;;18.26;100.00;100593.78;5261169;28;20106;-79
2023/08/25 07:38:35;;;;;;;19.17;15.00;;;;;;;18.32;100.00;100596.16;5262460;28;20029;-79
2023/08/25 07:41:06;;;;;;;18.23;13.53;;;;;;;18.30;100.00;100605.06;5244321;28;20337;-80
2023/08/25 07:43:38;;;;;;;16.33;13.67;;;;;;;18.32;100.00;100604.06;5262119;28;20531;-79
2023/08/25 07:46:09;;;;;;;16.50;13.87;;;;;;;18.28;100.00;100615.69;5261667;28;20082;-79
2023/08/25 07:48:40;;;;;;;18.87;13.67;;;;;;;18.31;100.00;100626.09;5244337;28;20094;-80
2023/08/25 07:51:12;;;;;;;17.70;13.27;;;;;;;18.27;100.00;100626.31;5261780;28;20379;-80
2023/08/25 07:53:43;;;;;;;14.80;12.67;;;;;;;18.27;100.00;100607.84;5262096;28;20060;-80
2023/08/25 07:56:15;;;;;;;15.13;12.50;;;;;;;18.26;100.00;100609.63;5243711;28;20432;-79
2023/08/25 07:58:47;;;;;;;13.07;11.75;;;;;;;18.20;100.00;100610.75;5262380;28;20027;-80
2023/08/25 08:01:18;;;;;;;18.53;11.40;;;;;;;18.03;100.00;100614.22;5261319;28;20075;-79
2023/08/25 08:03:50;;;;;;;20.97;11.90;;;;;;;18.15;100.00;100602.22;5261764;28;20025;-79
2023/08/25 08:06:22;;;;;;;15.15;11.95;;;;;;;18.11;100.00;100607.69;5261533;28;20296;-80
2023/08/25 08:08:53;;;;;;;12.33;11.00;;;;;;;18.25;100.00;100621.09;5266025;28;20041;-80
2023/08/25 08:11:25;;;;;;;11.90;10.63;;;;;;;18.15;100.00;100628.59;5261506;28;20388;-80
2023/08/25 08:13:56;;;;;;;13.05;10.35;;;;;;;18.16;100.00;100632.94;5261851;28;20542;-80
2023/08/25 08:16:28;;;;;;;12.50;11.30;;;;;;;18.16;100.00;100629.44;5261287;28;20384;-79
2023/08/25 08:19:00;;;;;;;18.50;11.82;;;;;;;18.17;100.00;100617.97;5262115;28;20025;-79
2023/08/25 08:21:31;;;;;;;13.57;12.17;;;;;;;18.22;100.00;100601.00;5261397;28;20037;-80
2023/08/25 08:24:03;;;;;;;14.10;12.20;;;;;;;18.22;100.00;100590.47;5262034;28;20035;-79
2023/08/25 08:26:36;;;;;;;12.90;11.38;;;;;;;18.24;100.00;100587.75;5261448;28;20037;-80
2023/08/25 08:29:08;;;;;;;11.98;10.77;;;;;;;18.25;100.00;100586.78;5271872;28;20146;-80
2023/08/25 08:31:40;;;;;;;14.88;12.10;;;;;;;18.31;100.00;100601.50;5268848;28;20034;-79
2023/08/25 08:34:11;;;;;;;12.97;11.73;;;;;;;18.35;100.00;100587.22;5244279;28;20362;-79
2023/08/25 08:36:43;;;;;;;13.40;12.13;;;;;;;18.34;100.00;100586.34;5260399;28;20029;-78
2023/08/25 08:39:15;;;;;;;14.80;13.30;;;;;;;18.28;100.00;100615.69;5262517;28;20472;-79
2023/08/25 08:41:48;;;;;;;13.95;12.75;;;;;;;18.30;100.00;100623.53;5270224;28;20133;-78
2023/08/25 08:44:21;;;;;;;14.65;13.07;;;;;;;18.26;100.00;100625.47;5274381;28;20013;-78
2023/08/25 08:46:53;;;;;;;14.32;13.02;;;;;;;18.20;100.00;100621.31;5277348;28;20025;-78
2023/08/25 08:49:26;;;;;;;14.68;13.25;;;;;;;18.27;100.00;100624.50;5261348;28;20040;-78
2023/08/25 08:52:01;;;;;;;13.77;12.38;;;;;;;18.23;100.00;100621.16;5264779;28;20384;-79
2023/08/25 08:54:35;;;;;;;14.07;12.70;;;;;;;18.23;100.00;100631.72;5264978;28;20060;-79
2023/08/25 08:57:06;;;;;;;14.25;13.02;;;;;;;18.22;100.00;100637.94;5264855;28;20040;-79
2023/08/25 08:59:37;;;;;;;13.20;11.97;;;;;;;18.23;100.00;100634.34;5264715;28;20029;-78
2023/08/25 09:02:12;;;;;;;16.00;13.07;;;;;;;18.20;100.00;100631.00;5246993;28;20059;-78
2023/08/25 09:04:45;;;;;;;14.57;12.40;;;;;;;18.20;100.00;100626.59;5264047;28;20422;-79
2023/08/25 09:07:18;;;;;;;14.85;13.45;;;;;;;18.16;100.00;100600.41;5265257;28;20053;-79
2023/08/25 09:09:50;;;;;;;15.27;13.77;;;;;;;18.16;100.00;100592.50;5264604;28;20427;-80
2023/08/25 09:12:22;;;;;;;17.10;13.88;;;;;;;18.22;100.00;100630.03;5264678;28;20033;-80
2023/08/25 09:14:53;;;;;;;14.63;13.33;;;;;;;18.17;100.00;100645.19;5266574;28;20093;-79
2023/08/25 09:17:24;;;;;;;15.33;13.73;;;;;;;18.22;100.00;100624.75;5274262;28;20479;-79
2023/08/25 09:20:04;;;;;;;16.20;14.70;;;;;;;18.41;100.00;100600.09;5271268;28;20127;-78
2023/08/25 09:22:36;;;;;;;15.73;14.13;;;;;;;18.53;100.00;100570.50;5271047;28;20028;-79
2023/08/25 09:25:08;;;;;;;19.50;15.40;;;;;;;18.59;100.00;100551.72;5263808;28;20033;-79
2023/08/25 09:27:39;;;;;;;16.15;14.68;;;;;;;18.66;100.00;100583.06;5264284;28;20055;-78
2023/08/25 09:30:11;;;;;;;14.77;13.57;;;;;;;18.87;100.00;100605.78;5277168;28;20025;-79
2023/08/25 09:32:42;;;;;;;15.18;13.68;;;;;;;18.76;100.00;100618.66;5284834;28;20025;-79
2023/08/25 09:35:15;;;;;;;15.37;13.97;;;;;;;18.82;100.00;100633.31;5284080;28;20039;-78
2023/08/25 09:37:46;;;;;;;;;;;;;;;18.92;100.00;100626.69;5285094;28;20020;-78
2023/08/25 09:40:18;;;;;;;13.77;12.47;;;;;;;18.63;100.00;100623.69;5284013;28;19935;-79
2023/08/25 09:42:49;;;;;;;14.30;13.10;;;;;;;18.49;100.00;100605.88;5267342;28;20029;-79
2023/08/25 09:45:20;;;;;;;15.10;13.60;;;;;;;18.58;100.00;100599.31;5263213;28;20124;-79
2023/08/25 09:47:52;;;;;;;15.67;13.20;;;;;;;18.63;100.00;100607.84;5264119;28;20064;-79
2023/08/25 09:50:24;;;;;;;14.48;13.07;;;;;;;18.98;100.00;100610.50;5263481;28;20116;-80
2023/08/25 09:52:56;;;;;;;14.60;13.20;;;;;;;19.30;100.00;100616.81;5263840;28;20116;-78
2023/08/25 09:55:28;;;;;;;13.30;12.10;;;;;;;19.44;100.00;100617.88;5262905;28;20029;-79
2023/08/25 09:57:59;;;;;;;13.15;11.95;;;;;;;19.58;100.00;100607.44;5245635;28;20087;-78
2023/08/25 10:00:33;;;;;;;13.17;11.97;;;;;;;19.67;100.00;100609.59;5245609;28;20040;-80
2023/08/25 10:03:08;;;;;;;13.82;12.48;;;;;;;19.90;100.00;100611.94;5263538;28;20751;-79
2023/08/25 10:05:44;;;;;;;13.57;12.27;;;;;;;20.21;100.00;100617.25;5264364;28;20106;-78
2023/08/25 10:08:16;;;;;;;13.20;11.95;;;;;;;20.44;100.00;100619.53;5263018;28;20043;-78
2023/08/25 10:10:47;;;;;;;;;;;;;;;20.86;100.00;100624.19;5263586;28;20061;-78
2023/08/25 10:13:22;;;;;;;12.07;11.00;;;;;;;21.05;100.00;100620.47;5263882;28;20035;-78
2023/08/25 10:15:55;;;;;;;12.20;11.10;;;;;;;21.62;100.00;100622.34;5263254;28;20017;-78
2023/08/25 10:18:28;;;;;;;12.40;10.23;;;;;;;21.58;100.00;100634.94;5263670;28;20053;-77
2023/08/25 10:21:00;;;;;;;10.55;9.55;;;;;;;21.72;100.00;100631.47;5263171;28;20473;-79
2023/08/25 10:23:35;;;;;;;8.68;7.85;;;;;;;21.52;100.00;100629.19;5245850;28;20037;-77
2023/08/25 10:26:07;;;;;;;9.32;8.45;;;;;;;21.72;100.00;100634.13;5262561;28;20132;-78
2023/08/25 10:28:39;;;;;;;10.00;8.48;;;;;;;21.67;100.00;100625.59;5263427;28;20171;-76
2023/08/25 10:31:12;;;;;;;10.27;9.38;;;;;;;21.65;100.00;100620.38;5263062;28;20166;-78
2023/08/25 10:33:51;;;;;;;9.88;8.98;;;;;;;21.45;100.00;100632.16;5263752;28;20037;-77
2023/08/25 10:36:23;;;;;;;10.07;9.10;;;;;;;21.12;100.00;100635.91;5262668;28;20035;-76
2023/08/25 10:38:54;;;;;;;10.05;8.95;;;;;;;20.93;100.00;100643.25;5263103;28;20033;-76
2023/08/25 10:41:28;;;;;;;10.83;9.63;;;;;;;20.67;100.00;100629.72;5262993;28;20110;-77
2023/08/25 10:43:59;;;;;;;11.10;10.00;;;;;;;20.43;100.00;100642.53;5263835;28;20036;-78
2023/08/25 10:46:31;;;;;;;11.20;10.07;;;;;;;20.21;100.00;100649.00;5263525;28;20029;-77
2023/08/25 10:49:06;;;;;;;11.13;10.02;;;;;;;20.09;100.00;100651.47;5262835;28;20056;-77
2023/08/25 10:51:38;;;;;;;11.13;10.02;;;;;;;19.92;100.00;100642.66;5263132;28;20029;-77
2023/08/25 10:54:17;;;;;;;13.05;11.73;;;;;;;19.86;100.00;100643.00;5263199;28;20044;-78
2023/08/25 10:56:48;;;;;;;15.25;12.88;;;;;;;19.81;100.00;100626.53;5262862;28;20086;-77
2023/08/25 10:59:20;;;;;;;12.57;11.40;;;;;;;19.90;100.00;100628.69;5263189;28;20041;-78
2023/08/25 11:01:54;;;;;;;14.05;12.48;;;;;;;19.96;100.00;100630.13;5262746;28;20071;-78
2023/08/25 11:04:27;;;;;;;14.25;12.93;;;;;;;19.93;100.00;100625.88;5262826;28;20029;-78
2023/08/25 11:06:59;;;;;;;15.30;13.77;;;;;;;20.09;100.00;100622.38;5268076;28;20044;-77
2023/08/25 11:09:32;;;;;;;17.30;15.68;;;;;;;20.12;100.00;100620.41;5284054;28;20491;-77
2023/08/25 11:12:08;;;;;;;16.48;15.02;;;;;;;20.23;100.00;100622.44;5283358;28;20036;-77
2023/08/25 11:14:42;;;;;;;17.02;15.38;;;;;;;20.35;100.00;100615.59;5283625;28;20033;-78
2023/08/25 11:17:13;;;;;;;16.25;14.75;;;;;;;20.64;100.00;100608.72;5283725;28;20044;-77
2023/08/25 11:19:45;;;;;;;16.00;14.60;;;;;;;20.80;100.00;100618.38;5283736;28;20464;-78
2023/08/25 11:22:17;;;;;;;16.05;14.50;;;;;;;21.07;100.00;100621.22;5283501;28;20063;-77
2023/08/25 11:24:48;;;;;;;15.43;14.10;;;;;;;21.39;100.00;100619.28;5283453;28;20128;-78
2023/08/25 11:27:22;;;;;;;15.30;13.73;;;;;;;21.16;100.00;100628.63;5283876;28;20672;-78